sensor_id;sensor_type;location;lat;lon;timestamp;temperature;humidity
14733;DHT22;7457;50.960;6.830;2023-04-01T00:00:53;9.90;87.50
14733;DHT22;7457;50.960;6.830;2023-04-01T00:03:20;9.90;87.50
14733;DHT22;7457;50.960;6.830;2023-04-01T00:05:46;10.00;87.30
14733;DHT22;7457;50.960;6.830;2023-04-01T00:08:12;10.00;87.20
14733;DHT22;7457;50.960;6.830;2023-04-01T00:10:38;10.00;87.10
14733;DHT22;7457;50.960;6.830;2023-04-01T00:13:04;10.00;87.00
14733;DHT22;7457;50.960;6.830;2023-04-01T00:15:30;10.00;86.90
14733;DHT22;7457;50.960;6.830;2023-04-01T00:17:55;10.00;86.80
14733;DHT22;7457;50.960;6.830;2023-04-01T00:20:21;10.10;86.70
14733;DHT22;7457;50.960;6.830;2023-04-01T00:22:47;10.10;86.70
14733;DHT22;7457;50.960;6.830;2023-04-01T00:25:14;10.10;86.60
14733;DHT22;7457;50.960;6.830;2023-04-01T00:27:40;10.10;86.50
14733;DHT22;7457;50.960;6.830;2023-04-01T00:30:06;10.10;86.40
14733;DHT22;7457;50.960;6.830;2023-04-01T00:32:33;10.10;86.50
14733;DHT22;7457;50.960;6.830;2023-04-01T00:34:58;10.10;86.40
14733;DHT22;7457;50.960;6.830;2023-04-01T00:37:25;10.10;86.40
14733;DHT22;7457;50.960;6.830;2023-04-01T00:39:51;10.00;86.70
14733;DHT22;7457;50.960;6.830;2023-04-01T00:42:17;10.00;86.70
14733;DHT22;7457;50.960;6.830;2023-04-01T00:44:45;10.00;86.70
14733;DHT22;7457;50.960;6.830;2023-04-01T00:47:12;10.00;86.80
14733;DHT22;7457;50.960;6.830;2023-04-01T00:49:44;10.00;86.60
14733;DHT22;7457;50.960;6.830;2023-04-01T00:52:14;10.00;86.50
14733;DHT22;7457;50.960;6.830;2023-04-01T00:54:42;10.10;86.40
14733;DHT22;7457;50.960;6.830;2023-04-01T00:57:13;10.10;86.30
14733;DHT22;7457;50.960;6.830;2023-04-01T00:59:46;10.10;86.20
14733;DHT22;7457;50.960;6.830;2023-04-01T01:02:14;10.10;86.10
14733;DHT22;7457;50.960;6.830;2023-04-01T01:04:40;10.10;86.00
14733;DHT22;7457;50.960;6.830;2023-04-01T01:10:14;10.10;86.00
14733;DHT22;7457;50.960;6.830;2023-04-01T01:15:21;10.10;86.00
14733;DHT22;7457;50.960;6.830;2023-04-01T01:18:18;10.10;86.20
14733;DHT22;7457;50.960;6.830;2023-04-01T01:35:22;9.80;87.70
14733;DHT22;7457;50.960;6.830;2023-04-01T01:37:58;9.80;88.00
14733;DHT22;7457;50.960;6.830;2023-04-01T01:40:26;9.80;88.10
14733;DHT22;7457;50.960;6.830;2023-04-01T01:42:56;9.80;88.30
14733;DHT22;7457;50.960;6.830;2023-04-01T01:45:25;9.70;88.60
14733;DHT22;7457;50.960;6.830;2023-04-01T01:47:51;9.70;88.90
14733;DHT22;7457;50.960;6.830;2023-04-01T01:50:18;9.60;89.20
14733;DHT22;7457;50.960;6.830;2023-04-01T01:52:45;9.60;89.50
14733;DHT22;7457;50.960;6.830;2023-04-01T01:55:43;9.60;89.90
14733;DHT22;7457;50.960;6.830;2023-04-01T01:58:11;9.50;90.50
14733;DHT22;7457;50.960;6.830;2023-04-01T02:00:39;9.40;90.70
14733;DHT22;7457;50.960;6.830;2023-04-01T02:03:06;9.40;91.00
14733;DHT22;7457;50.960;6.830;2023-04-01T02:05:32;9.30;91.30
14733;DHT22;7457;50.960;6.830;2023-04-01T02:08:09;9.30;91.70
14733;DHT22;7457;50.960;6.830;2023-04-01T02:10:40;9.20;91.90
14733;DHT22;7457;50.960;6.830;2023-04-01T02:13:16;9.20;92.00
14733;DHT22;7457;50.960;6.830;2023-04-01T02:15:47;9.20;92.30
14733;DHT22;7457;50.960;6.830;2023-04-01T02:18:15;9.10;92.40
14733;DHT22;7457;50.960;6.830;2023-04-01T02:20:42;9.10;92.50
14733;DHT22;7457;50.960;6.830;2023-04-01T02:23:09;9.10;92.30
14733;DHT22;7457;50.960;6.830;2023-04-01T02:25:37;9.10;92.40
14733;DHT22;7457;50.960;6.830;2023-04-01T02:28:05;9.10;92.60
14733;DHT22;7457;50.960;6.830;2023-04-01T02:30:34;9.00;92.70
14733;DHT22;7457;50.960;6.830;2023-04-01T02:33:01;9.00;93.00
14733;DHT22;7457;50.960;6.830;2023-04-01T02:35:27;9.00;93.10
14733;DHT22;7457;50.960;6.830;2023-04-01T02:37:54;8.90;93.40
14733;DHT22;7457;50.960;6.830;2023-04-01T02:40:20;8.90;93.70
14733;DHT22;7457;50.960;6.830;2023-04-01T02:42:46;8.90;94.00
14733;DHT22;7457;50.960;6.830;2023-04-01T02:45:13;8.90;94.00
14733;DHT22;7457;50.960;6.830;2023-04-01T02:47:39;8.90;94.20
14733;DHT22;7457;50.960;6.830;2023-04-01T02:50:05;8.90;94.40
14733;DHT22;7457;50.960;6.830;2023-04-01T02:52:31;8.90;94.50
14733;DHT22;7457;50.960;6.830;2023-04-01T02:54:57;8.90;94.70
14733;DHT22;7457;50.960;6.830;2023-04-01T02:57:24;8.90;94.70
14733;DHT22;7457;50.960;6.830;2023-04-01T02:59:49;8.90;94.60
14733;DHT22;7457;50.960;6.830;2023-04-01T03:02:16;8.90;94.60
14733;DHT22;7457;50.960;6.830;2023-04-01T03:04:42;8.90;94.50
14733;DHT22;7457;50.960;6.830;2023-04-01T03:07:08;9.00;94.50
14733;DHT22;7457;50.960;6.830;2023-04-01T03:09:36;8.90;94.40
14733;DHT22;7457;50.960;6.830;2023-04-01T03:12:02;8.90;94.40
14733;DHT22;7457;50.960;6.830;2023-04-01T03:14:27;9.00;94.40
14733;DHT22;7457;50.960;6.830;2023-04-01T03:16:53;9.00;94.30
14733;DHT22;7457;50.960;6.830;2023-04-01T03:19:19;9.00;94.10
14733;DHT22;7457;50.960;6.830;2023-04-01T03:21:44;9.00;94.00
14733;DHT22;7457;50.960;6.830;2023-04-01T03:24:10;9.10;93.80
14733;DHT22;7457;50.960;6.830;2023-04-01T03:26:36;9.10;93.70
14733;DHT22;7457;50.960;6.830;2023-04-01T03:29:01;9.10;93.80
14733;DHT22;7457;50.960;6.830;2023-04-01T03:31:27;9.10;93.60
14733;DHT22;7457;50.960;6.830;2023-04-01T03:33:52;9.20;93.60
14733;DHT22;7457;50.960;6.830;2023-04-01T03:36:18;9.10;93.50
14733;DHT22;7457;50.960;6.830;2023-04-01T03:38:44;9.10;93.50
14733;DHT22;7457;50.960;6.830;2023-04-01T03:41:15;9.10;93.60
14733;DHT22;7457;50.960;6.830;2023-04-01T03:43:41;9.10;93.70
14733;DHT22;7457;50.960;6.830;2023-04-01T03:46:07;9.10;93.90
14733;DHT22;7457;50.960;6.830;2023-04-01T03:48:32;9.10;93.90
14733;DHT22;7457;50.960;6.830;2023-04-01T03:50:58;9.00;94.00
14733;DHT22;7457;50.960;6.830;2023-04-01T03:53:24;9.00;94.10
14733;DHT22;7457;50.960;6.830;2023-04-01T03:55:50;9.00;94.30
14733;DHT22;7457;50.960;6.830;2023-04-01T03:58:17;9.00;94.30
14733;DHT22;7457;50.960;6.830;2023-04-01T04:00:42;9.00;94.40
14733;DHT22;7457;50.960;6.830;2023-04-01T04:03:08;9.10;94.40
14733;DHT22;7457;50.960;6.830;2023-04-01T04:05:34;9.10;94.30
14733;DHT22;7457;50.960;6.830;2023-04-01T04:07:59;9.10;94.30
14733;DHT22;7457;50.960;6.830;2023-04-01T04:10:25;9.10;94.30
14733;DHT22;7457;50.960;6.830;2023-04-01T04:12:51;9.10;94.30
14733;DHT22;7457;50.960;6.830;2023-04-01T04:15:17;9.10;94.20
14733;DHT22;7457;50.960;6.830;2023-04-01T04:17:46;9.10;94.20
14733;DHT22;7457;50.960;6.830;2023-04-01T04:20:12;9.20;94.20
14733;DHT22;7457;50.960;6.830;2023-04-01T04:22:38;9.10;94.20
14733;DHT22;7457;50.960;6.830;2023-04-01T04:25:04;9.10;94.40
14733;DHT22;7457;50.960;6.830;2023-04-01T04:27:30;9.10;94.40
14733;DHT22;7457;50.960;6.830;2023-04-01T04:29:55;9.10;94.40
14733;DHT22;7457;50.960;6.830;2023-04-01T04:32:21;9.10;94.50
14733;DHT22;7457;50.960;6.830;2023-04-01T04:34:46;9.10;94.70
14733;DHT22;7457;50.960;6.830;2023-04-01T04:37:12;9.10;94.80
14733;DHT22;7457;50.960;6.830;2023-04-01T04:39:38;9.00;94.90
14733;DHT22;7457;50.960;6.830;2023-04-01T04:42:03;9.00;95.10
14733;DHT22;7457;50.960;6.830;2023-04-01T04:44:29;9.00;95.30
14733;DHT22;7457;50.960;6.830;2023-04-01T04:46:55;9.00;95.20
14733;DHT22;7457;50.960;6.830;2023-04-01T04:49:20;9.00;95.50
14733;DHT22;7457;50.960;6.830;2023-04-01T04:51:46;8.90;95.60
14733;DHT22;7457;50.960;6.830;2023-04-01T04:54:12;8.90;95.70
14733;DHT22;7457;50.960;6.830;2023-04-01T04:56:37;8.90;96.10
14733;DHT22;7457;50.960;6.830;2023-04-01T04:59:03;8.90;96.20
14733;DHT22;7457;50.960;6.830;2023-04-01T05:01:29;8.90;96.40
14733;DHT22;7457;50.960;6.830;2023-04-01T05:03:55;8.90;96.50
14733;DHT22;7457;50.960;6.830;2023-04-01T05:06:20;8.80;96.80
14733;DHT22;7457;50.960;6.830;2023-04-01T05:08:46;8.80;97.20
14733;DHT22;7457;50.960;6.830;2023-04-01T05:11:17;8.80;97.30
14733;DHT22;7457;50.960;6.830;2023-04-01T05:13:44;8.80;97.60
14733;DHT22;7457;50.960;6.830;2023-04-01T05:16:15;8.80;97.70
14733;DHT22;7457;50.960;6.830;2023-04-01T05:18:41;8.80;97.80
14733;DHT22;7457;50.960;6.830;2023-04-01T05:21:08;8.80;97.80
14733;DHT22;7457;50.960;6.830;2023-04-01T05:23:35;8.80;97.80
14733;DHT22;7457;50.960;6.830;2023-04-01T05:26:08;8.80;97.90
14733;DHT22;7457;50.960;6.830;2023-04-01T05:28:34;8.80;97.90
14733;DHT22;7457;50.960;6.830;2023-04-01T05:31:01;8.90;98.10
14733;DHT22;7457;50.960;6.830;2023-04-01T05:33:28;8.90;98.10
14733;DHT22;7457;50.960;6.830;2023-04-01T05:35:55;8.90;98.10
14733;DHT22;7457;50.960;6.830;2023-04-01T05:38:20;8.90;98.40
14733;DHT22;7457;50.960;6.830;2023-04-01T05:40:46;8.90;98.50
14733;DHT22;7457;50.960;6.830;2023-04-01T05:43:12;8.90;98.70
14733;DHT22;7457;50.960;6.830;2023-04-01T05:45:38;8.90;98.90
14733;DHT22;7457;50.960;6.830;2023-04-01T05:48:04;8.80;99.10
14733;DHT22;7457;50.960;6.830;2023-04-01T05:50:30;8.90;99.30
14733;DHT22;7457;50.960;6.830;2023-04-01T05:52:55;8.80;99.30
14733;DHT22;7457;50.960;6.830;2023-04-01T05:55:21;8.90;99.30
14733;DHT22;7457;50.960;6.830;2023-04-01T05:57:47;8.80;99.40
14733;DHT22;7457;50.960;6.830;2023-04-01T06:00:15;8.80;99.50
14733;DHT22;7457;50.960;6.830;2023-04-01T06:02:41;8.80;99.50
14733;DHT22;7457;50.960;6.830;2023-04-01T06:05:22;8.80;99.70
14733;DHT22;7457;50.960;6.830;2023-04-01T06:07:51;8.80;100.00
14733;DHT22;7457;50.960;6.830;2023-04-01T06:10:21;8.80;100.00
14733;DHT22;7457;50.960;6.830;2023-04-01T06:13:06;8.80;100.00
14733;DHT22;7457;50.960;6.830;2023-04-01T06:15:39;8.80;100.00
14733;DHT22;7457;50.960;6.830;2023-04-01T06:30:02;9.10;100.00
14733;DHT22;7457;50.960;6.830;2023-04-01T06:56:37;9.50;100.00
14733;DHT22;7457;50.960;6.830;2023-04-01T06:59:13;9.50;100.00
14733;DHT22;7457;50.960;6.830;2023-04-01T07:02:22;9.50;99.90
14733;DHT22;7457;50.960;6.830;2023-04-01T07:04:43;9.50;99.90
14733;DHT22;7457;50.960;6.830;2023-04-01T07:07:46;9.50;100.00
14733;DHT22;7457;50.960;6.830;2023-04-01T07:10:19;9.50;100.00
14733;DHT22;7457;50.960;6.830;2023-04-01T07:12:57;9.40;100.00
14733;DHT22;7457;50.960;6.830;2023-04-01T07:15:39;9.40;100.00
14733;DHT22;7457;50.960;6.830;2023-04-01T07:18:29;9.40;100.00
14733;DHT22;7457;50.960;6.830;2023-04-01T07:20:56;9.40;100.00
14733;DHT22;7457;50.960;6.830;2023-04-01T07:23:29;9.40;100.00
14733;DHT22;7457;50.960;6.830;2023-04-01T07:26:14;9.40;100.00
14733;DHT22;7457;50.960;6.830;2023-04-01T07:28:41;9.30;100.00
14733;DHT22;7457;50.960;6.830;2023-04-01T07:34:10;9.30;100.00
14733;DHT22;7457;50.960;6.830;2023-04-01T08:01:17;9.30;100.00
14733;DHT22;7457;50.960;6.830;2023-04-01T08:06:45;9.30;100.00
14733;DHT22;7457;50.960;6.830;2023-04-01T08:09:35;9.30;100.00
14733;DHT22;7457;50.960;6.830;2023-04-01T08:15:20;9.30;100.00
14733;DHT22;7457;50.960;6.830;2023-04-01T08:18:15;9.30;100.00
14733;DHT22;7457;50.960;6.830;2023-04-01T08:23:36;9.30;100.00
14733;DHT22;7457;50.960;6.830;2023-04-01T08:26:23;9.40;100.00
14733;DHT22;7457;50.960;6.830;2023-04-01T08:34:16;9.50;100.00
14733;DHT22;7457;50.960;6.830;2023-04-01T08:36:48;9.50;100.00
14733;DHT22;7457;50.960;6.830;2023-04-01T08:39:29;9.60;100.00
14733;DHT22;7457;50.960;6.830;2023-04-01T08:59:04;10.00;100.00
14733;DHT22;7457;50.960;6.830;2023-04-01T09:04:40;10.00;100.00
14733;DHT22;7457;50.960;6.830;2023-04-01T09:07:11;10.10;100.00
14733;DHT22;7457;50.960;6.830;2023-04-01T09:28:55;10.00;100.00
14733;DHT22;7457;50.960;6.830;2023-04-01T09:34:54;10.10;100.00
14733;DHT22;7457;50.960;6.830;2023-04-01T09:40:37;10.00;100.00
14733;DHT22;7457;50.960;6.830;2023-04-01T09:43:30;10.00;100.00
14733;DHT22;7457;50.960;6.830;2023-04-01T09:46:26;10.00;100.00
14733;DHT22;7457;50.960;6.830;2023-04-01T10:03:24;10.20;100.00
14733;DHT22;7457;50.960;6.830;2023-04-01T10:06:36;10.20;100.00
14733;DHT22;7457;50.960;6.830;2023-04-01T10:26:32;10.50;99.80
14733;DHT22;7457;50.960;6.830;2023-04-01T10:43:12;10.50;99.90
14733;DHT22;7457;50.960;6.830;2023-04-01T10:45:52;10.70;99.10
14733;DHT22;7457;50.960;6.830;2023-04-01T10:54:16;10.90;97.90
14733;DHT22;7457;50.960;6.830;2023-04-01T10:56:51;11.00;97.60
14733;DHT22;7457;50.960;6.830;2023-04-01T11:33:47;11.30;95.50
14733;DHT22;7457;50.960;6.830;2023-04-01T11:44:42;11.40;94.60
14733;DHT22;7457;50.960;6.830;2023-04-01T12:01:27;11.00;95.50
14733;DHT22;7457;50.960;6.830;2023-04-01T12:09:15;11.20;95.90
14733;DHT22;7457;50.960;6.830;2023-04-01T12:11:51;11.20;95.40
14733;DHT22;7457;50.960;6.830;2023-04-01T12:14:36;11.30;95.20
14733;DHT22;7457;50.960;6.830;2023-04-01T12:17:37;11.30;95.20
14733;DHT22;7457;50.960;6.830;2023-04-01T12:22:49;11.50;94.60
14733;DHT22;7457;50.960;6.830;2023-04-01T12:42:17;12.00;92.10
14733;DHT22;7457;50.960;6.830;2023-04-01T12:50:16;11.80;91.70
14733;DHT22;7457;50.960;6.830;2023-04-01T12:55:39;11.50;92.50
14733;DHT22;7457;50.960;6.830;2023-04-01T13:01:23;11.40;93.00
14733;DHT22;7457;50.960;6.830;2023-04-01T13:06:42;11.50;93.50
14733;DHT22;7457;50.960;6.830;2023-04-01T13:19:55;11.60;92.80
14733;DHT22;7457;50.960;6.830;2023-04-01T13:28:24;12.00;92.20
14733;DHT22;7457;50.960;6.830;2023-04-01T13:31:05;12.10;91.10
14733;DHT22;7457;50.960;6.830;2023-04-01T13:41:29;11.90;91.00
14733;DHT22;7457;50.960;6.830;2023-04-01T13:44:02;11.90;90.80
14733;DHT22;7457;50.960;6.830;2023-04-01T13:46:43;11.80;90.60
14733;DHT22;7457;50.960;6.830;2023-04-01T13:49:51;11.70;90.00
14733;DHT22;7457;50.960;6.830;2023-04-01T14:05:48;11.40;91.80
14733;DHT22;7457;50.960;6.830;2023-04-01T14:28:41;11.10;94.30
14733;DHT22;7457;50.960;6.830;2023-04-01T14:31:28;11.20;94.90
14733;DHT22;7457;50.960;6.830;2023-04-01T14:47:27;11.20;95.10
14733;DHT22;7457;50.960;6.830;2023-04-01T14:50:07;11.20;95.00
14733;DHT22;7457;50.960;6.830;2023-04-01T14:52:38;11.20;94.90
14733;DHT22;7457;50.960;6.830;2023-04-01T14:55:31;11.10;94.70
14733;DHT22;7457;50.960;6.830;2023-04-01T14:58:21;11.00;94.60
14733;DHT22;7457;50.960;6.830;2023-04-01T15:03:37;10.90;95.00
14733;DHT22;7457;50.960;6.830;2023-04-01T15:11:55;10.90;95.10
14733;DHT22;7457;50.960;6.830;2023-04-01T15:14:42;10.90;94.80
14733;DHT22;7457;50.960;6.830;2023-04-01T15:25:46;11.00;94.80
14733;DHT22;7457;50.960;6.830;2023-04-01T15:33:59;11.00;93.70
14733;DHT22;7457;50.960;6.830;2023-04-01T15:39:20;11.00;94.00
14733;DHT22;7457;50.960;6.830;2023-04-01T15:44:57;11.00;93.50
14733;DHT22;7457;50.960;6.830;2023-04-01T16:01:15;10.90;94.30
14733;DHT22;7457;50.960;6.830;2023-04-01T16:20:27;11.00;94.60
14733;DHT22;7457;50.960;6.830;2023-04-01T16:23:10;11.00;94.50
14733;DHT22;7457;50.960;6.830;2023-04-01T16:25:45;10.90;94.30
14733;DHT22;7457;50.960;6.830;2023-04-01T16:33:55;10.50;95.30
14733;DHT22;7457;50.960;6.830;2023-04-01T16:41:52;10.20;96.60
14733;DHT22;7457;50.960;6.830;2023-04-01T16:44:26;10.10;96.80
14733;DHT22;7457;50.960;6.830;2023-04-01T16:49:50;10.10;97.20
14733;DHT22;7457;50.960;6.830;2023-04-01T16:52:34;10.10;97.50
14733;DHT22;7457;50.960;6.830;2023-04-01T16:55:14;10.10;97.40
14733;DHT22;7457;50.960;6.830;2023-04-01T16:57:51;10.10;97.30
14733;DHT22;7457;50.960;6.830;2023-04-01T17:11:24;10.10;96.80
14733;DHT22;7457;50.960;6.830;2023-04-01T17:16:40;10.10;96.70
14733;DHT22;7457;50.960;6.830;2023-04-01T17:32:44;9.90;97.20
14733;DHT22;7457;50.960;6.830;2023-04-01T17:35:32;9.80;97.20
14733;DHT22;7457;50.960;6.830;2023-04-01T17:40:53;9.80;97.20
14733;DHT22;7457;50.960;6.830;2023-04-01T17:46:18;9.70;97.10
14733;DHT22;7457;50.960;6.830;2023-04-01T18:00:02;9.50;97.20
14733;DHT22;7457;50.960;6.830;2023-04-01T18:05:24;9.50;97.60
14733;DHT22;7457;50.960;6.830;2023-04-01T18:24:06;9.10;99.10
14733;DHT22;7457;50.960;6.830;2023-04-01T18:26:39;9.10;99.10
14733;DHT22;7457;50.960;6.830;2023-04-01T18:29:24;9.00;99.30
14733;DHT22;7457;50.960;6.830;2023-04-01T18:32:00;9.00;99.50
14733;DHT22;7457;50.960;6.830;2023-04-01T18:34:50;9.00;99.60
14733;DHT22;7457;50.960;6.830;2023-04-01T18:37:34;9.00;99.70
14733;DHT22;7457;50.960;6.830;2023-04-01T18:40:50;9.00;99.90
14733;DHT22;7457;50.960;6.830;2023-04-01T18:43:32;9.00;99.80
14733;DHT22;7457;50.960;6.830;2023-04-01T18:49:00;9.00;100.00
14733;DHT22;7457;50.960;6.830;2023-04-01T18:51:51;9.00;100.00
14733;DHT22;7457;50.960;6.830;2023-04-01T18:57:50;9.00;99.80
14733;DHT22;7457;50.960;6.830;2023-04-01T19:00:27;8.90;99.80
14733;DHT22;7457;50.960;6.830;2023-04-01T19:05:40;8.90;100.00
14733;DHT22;7457;50.960;6.830;2023-04-01T19:08:32;9.00;100.00
14733;DHT22;7457;50.960;6.830;2023-04-01T19:11:16;9.00;100.00
14733;DHT22;7457;50.960;6.830;2023-04-01T19:29:54;8.90;100.00
14733;DHT22;7457;50.960;6.830;2023-04-01T19:38:10;8.90;100.00
14733;DHT22;7457;50.960;6.830;2023-04-01T19:41:01;8.90;100.00
14733;DHT22;7457;50.960;6.830;2023-04-01T19:46:26;8.90;100.00
14733;DHT22;7457;50.960;6.830;2023-04-01T20:04:53;8.80;100.00
14733;DHT22;7457;50.960;6.830;2023-04-01T20:07:41;8.80;100.00
14733;DHT22;7457;50.960;6.830;2023-04-01T20:10:14;8.80;100.00
14733;DHT22;7457;50.960;6.830;2023-04-01T20:12:51;8.80;100.00
14733;DHT22;7457;50.960;6.830;2023-04-01T20:18:48;8.80;100.00
14733;DHT22;7457;50.960;6.830;2023-04-01T20:21:24;8.70;100.00
14733;DHT22;7457;50.960;6.830;2023-04-01T20:26:38;8.70;100.00
14733;DHT22;7457;50.960;6.830;2023-04-01T20:29:37;8.70;100.00
14733;DHT22;7457;50.960;6.830;2023-04-01T20:32:14;8.70;100.00
14733;DHT22;7457;50.960;6.830;2023-04-01T20:40:52;8.70;100.00
14733;DHT22;7457;50.960;6.830;2023-04-01T20:43:33;8.70;100.00
14733;DHT22;7457;50.960;6.830;2023-04-01T20:49:39;8.70;100.00
14733;DHT22;7457;50.960;6.830;2023-04-01T20:54:46;8.70;100.00
14733;DHT22;7457;50.960;6.830;2023-04-01T20:57:31;8.70;100.00
14733;DHT22;7457;50.960;6.830;2023-04-01T21:05:44;8.70;100.00
14733;DHT22;7457;50.960;6.830;2023-04-01T21:11:22;8.70;100.00
14733;DHT22;7457;50.960;6.830;2023-04-01T21:14:06;8.70;100.00
14733;DHT22;7457;50.960;6.830;2023-04-01T21:19:33;8.70;100.00
14733;DHT22;7457;50.960;6.830;2023-04-01T21:25:03;8.70;100.00
14733;DHT22;7457;50.960;6.830;2023-04-01T21:40:52;8.60;100.00
14733;DHT22;7457;50.960;6.830;2023-04-01T21:46:40;8.60;100.00
14733;DHT22;7457;50.960;6.830;2023-04-01T22:16:56;8.60;100.00
14733;DHT22;7457;50.960;6.830;2023-04-01T22:19:51;8.60;100.00
14733;DHT22;7457;50.960;6.830;2023-04-01T22:27:52;8.60;100.00
14733;DHT22;7457;50.960;6.830;2023-04-01T22:30:31;8.70;100.00
14733;DHT22;7457;50.960;6.830;2023-04-01T22:41:12;8.90;100.00
14733;DHT22;7457;50.960;6.830;2023-04-01T22:56:23;9.00;100.00
14733;DHT22;7457;50.960;6.830;2023-04-01T22:59:23;8.90;100.00
14733;DHT22;7457;50.960;6.830;2023-04-01T23:02:09;8.90;100.00
14733;DHT22;7457;50.960;6.830;2023-04-01T23:04:39;8.90;100.00
14733;DHT22;7457;50.960;6.830;2023-04-01T23:07:29;8.80;100.00
14733;DHT22;7457;50.960;6.830;2023-04-01T23:10:02;8.80;100.00
14733;DHT22;7457;50.960;6.830;2023-04-01T23:12:32;8.80;100.00
14733;DHT22;7457;50.960;6.830;2023-04-01T23:15:00;8.80;100.00
14733;DHT22;7457;50.960;6.830;2023-04-01T23:20:20;8.70;100.00
14733;DHT22;7457;50.960;6.830;2023-04-01T23:23:17;8.70;100.00
14733;DHT22;7457;50.960;6.830;2023-04-01T23:30:58;8.70;100.00
14733;DHT22;7457;50.960;6.830;2023-04-01T23:33:28;8.60;100.00
14733;DHT22;7457;50.960;6.830;2023-04-01T23:36:13;8.60;100.00
14733;DHT22;7457;50.960;6.830;2023-04-01T23:38:41;8.60;100.00
14733;DHT22;7457;50.960;6.830;2023-04-01T23:41:16;8.60;100.00
14733;DHT22;7457;50.960;6.830;2023-04-01T23:43:44;8.50;100.00
14733;DHT22;7457;50.960;6.830;2023-04-01T23:46:12;8.50;100.00
14733;DHT22;7457;50.960;6.830;2023-04-01T23:48:43;8.50;100.00
14733;DHT22;7457;50.960;6.830;2023-04-01T23:51:25;8.50;100.00
14733;DHT22;7457;50.960;6.830;2023-04-01T23:54:10;8.50;100.00
14733;DHT22;7457;50.960;6.830;2023-04-01T23:56:45;8.50;100.00
14733;DHT22;7457;50.960;6.830;2023-04-01T23:59:17;8.50;100.00
